Red Gate, Texas
Current Conditions -  °F | °C
As of 11:53 AM on Friday 31 Oct 2014 (Local Time) from KMFE Reporting Station
Broken Clouds Broken Clouds  
Wind Chill: 74°   Ceiling: 4000
Heat Index: 74°   Visibility: 10mi
Dew Point: 62°   Wind: 17mph
Humidity: 66%   Direction: 20°NNE
Pressure: 30.2"   Gusts: 26mph
Location:  26.2938°N, 98.1548°W
Report Text: KMFE 311653Z 02015G23KT 10SM BKN040 23/17 A3020 RMK AO2 PK WND 01029/1557 LTG DSNT E SLP225 T02330167
Loading
Personal Weather Stations






























Interactive Weather Map
Tropical Storm Tracking
New forecast layout! Learn more

10-Day Weather Forecast

Advertisements
Track Severe Weather on mobile